sensor_id;sensor_type;location;lat;lon;timestamp;P1;durP1;ratioP1;P2;durP2;ratioP2
77798;SDS011;66989;50.426;15.352;2023-07-20T00:00:22;2.00;;;1.02;;
77798;SDS011;66989;50.426;15.352;2023-07-20T00:02:49;2.78;;;1.35;;
77798;SDS011;66989;50.426;15.352;2023-07-20T00:05:15;4.65;;;1.45;;
77798;SDS011;66989;50.426;15.352;2023-07-20T00:07:43;1.23;;;0.73;;
77798;SDS011;66989;50.426;15.352;2023-07-20T00:10:09;1.73;;;0.55;;
77798;SDS011;66989;50.426;15.352;2023-07-20T00:12:34;1.70;;;1.00;;
77798;SDS011;66989;50.426;15.352;2023-07-20T00:15:00;3.15;;;0.32;;
77798;SDS011;66989;50.426;15.352;2023-07-20T00:17:25;1.00;;;0.60;;
77798;SDS011;66989;50.426;15.352;2023-07-20T00:19:51;1.60;;;0.73;;
77798;SDS011;66989;50.426;15.352;2023-07-20T00:22:16;1.00;;;0.43;;
77798;SDS011;66989;50.426;15.352;2023-07-20T00:24:41;1.75;;;0.47;;
77798;SDS011;66989;50.426;15.352;2023-07-20T00:27:07;2.08;;;1.05;;
77798;SDS011;66989;50.426;15.352;2023-07-20T00:29:32;1.63;;;0.80;;
77798;SDS011;66989;50.426;15.352;2023-07-20T00:31:58;1.30;;;0.63;;
77798;SDS011;66989;50.426;15.352;2023-07-20T00:34:23;1.27;;;0.88;;
77798;SDS011;66989;50.426;15.352;2023-07-20T00:36:49;1.95;;;0.82;;
77798;SDS011;66989;50.426;15.352;2023-07-20T00:39:15;2.92;;;0.90;;
77798;SDS011;66989;50.426;15.352;2023-07-20T00:41:40;2.33;;;0.85;;
77798;SDS011;66989;50.426;15.352;2023-07-20T00:44:06;2.67;;;1.30;;
77798;SDS011;66989;50.426;15.352;2023-07-20T00:46:31;1.73;;;1.25;;
77798;SDS011;66989;50.426;15.352;2023-07-20T00:51:24;1.80;;;1.17;;
77798;SDS011;66989;50.426;15.352;2023-07-20T00:53:50;1.70;;;1.27;;
77798;SDS011;66989;50.426;15.352;2023-07-20T00:56:16;1.92;;;0.80;;
77798;SDS011;66989;50.426;15.352;2023-07-20T00:58:41;1.73;;;0.68;;
77798;SDS011;66989;50.426;15.352;2023-07-20T01:01:07;1.42;;;0.85;;
77798;SDS011;66989;50.426;15.352;2023-07-20T01:03:32;2.27;;;0.93;;
77798;SDS011;66989;50.426;15.352;2023-07-20T01:06:05;1.70;;;0.68;;
77798;SDS011;66989;50.426;15.352;2023-07-20T01:08:42;1.20;;;0.57;;
77798;SDS011;66989;50.426;15.352;2023-07-20T01:11:26;1.88;;;0.82;;
77798;SDS011;66989;50.426;15.352;2023-07-20T01:14:00;1.02;;;0.75;;
77798;SDS011;66989;50.426;15.352;2023-07-20T01:16:27;1.20;;;0.73;;
77798;SDS011;66989;50.426;15.352;2023-07-20T01:18:52;2.20;;;1.02;;
77798;SDS011;66989;50.426;15.352;2023-07-20T01:21:20;1.52;;;0.57;;
77798;SDS011;66989;50.426;15.352;2023-07-20T01:32:03;1.98;;;0.98;;
77798;SDS011;66989;50.426;15.352;2023-07-20T01:34:32;2.92;;;0.95;;
77798;SDS011;66989;50.426;15.352;2023-07-20T01:37:00;1.25;;;0.73;;
77798;SDS011;66989;50.426;15.352;2023-07-20T01:41:52;1.67;;;0.75;;
77798;SDS011;66989;50.426;15.352;2023-07-20T01:44:18;1.33;;;0.52;;
77798;SDS011;66989;50.426;15.352;2023-07-20T01:46:43;3.35;;;1.90;;
77798;SDS011;66989;50.426;15.352;2023-07-20T01:49:08;1.48;;;0.82;;
77798;SDS011;66989;50.426;15.352;2023-07-20T01:51:34;1.65;;;0.57;;
77798;SDS011;66989;50.426;15.352;2023-07-20T01:53:59;1.60;;;0.80;;
77798;SDS011;66989;50.426;15.352;2023-07-20T01:56:25;2.10;;;1.20;;
77798;SDS011;66989;50.426;15.352;2023-07-20T01:58:50;1.97;;;1.00;;
77798;SDS011;66989;50.426;15.352;2023-07-20T02:01:15;3.25;;;0.90;;
77798;SDS011;66989;50.426;15.352;2023-07-20T02:03:41;1.40;;;0.82;;
77798;SDS011;66989;50.426;15.352;2023-07-20T02:06:06;3.50;;;1.27;;
77798;SDS011;66989;50.426;15.352;2023-07-20T02:08:31;1.10;;;0.65;;
77798;SDS011;66989;50.426;15.352;2023-07-20T02:10:57;1.70;;;0.85;;
77798;SDS011;66989;50.426;15.352;2023-07-20T02:13:22;1.63;;;0.52;;
77798;SDS011;66989;50.426;15.352;2023-07-20T02:15:47;1.38;;;0.88;;
77798;SDS011;66989;50.426;15.352;2023-07-20T02:18:14;1.45;;;0.73;;
77798;SDS011;66989;50.426;15.352;2023-07-20T02:20:40;2.67;;;1.23;;
77798;SDS011;66989;50.426;15.352;2023-07-20T02:23:06;2.70;;;0.68;;
77798;SDS011;66989;50.426;15.352;2023-07-20T02:25:31;2.20;;;1.40;;
77798;SDS011;66989;50.426;15.352;2023-07-20T02:27:56;2.47;;;1.07;;
77798;SDS011;66989;50.426;15.352;2023-07-20T02:30:22;1.90;;;1.17;;
77798;SDS011;66989;50.426;15.352;2023-07-20T02:32:48;1.48;;;0.82;;
77798;SDS011;66989;50.426;15.352;2023-07-20T02:35:14;2.75;;;1.10;;
77798;SDS011;66989;50.426;15.352;2023-07-20T02:37:42;2.08;;;1.10;;
77798;SDS011;66989;50.426;15.352;2023-07-20T02:40:08;2.55;;;1.58;;
77798;SDS011;66989;50.426;15.352;2023-07-20T02:42:34;1.58;;;0.90;;
77798;SDS011;66989;50.426;15.352;2023-07-20T02:44:59;6.45;;;0.88;;
77798;SDS011;66989;50.426;15.352;2023-07-20T02:47:25;1.52;;;1.08;;
77798;SDS011;66989;50.426;15.352;2023-07-20T02:49:51;1.88;;;1.73;;
77798;SDS011;66989;50.426;15.352;2023-07-20T02:52:16;2.45;;;1.52;;
77798;SDS011;66989;50.426;15.352;2023-07-20T02:54:41;2.13;;;0.97;;
77798;SDS011;66989;50.426;15.352;2023-07-20T02:57:07;2.08;;;1.38;;
77798;SDS011;66989;50.426;15.352;2023-07-20T02:59:32;2.97;;;1.95;;
77798;SDS011;66989;50.426;15.352;2023-07-20T03:01:58;2.30;;;1.00;;
77798;SDS011;66989;50.426;15.352;2023-07-20T03:04:25;2.40;;;1.10;;
77798;SDS011;66989;50.426;15.352;2023-07-20T03:06:51;3.70;;;1.42;;
77798;SDS011;66989;50.426;15.352;2023-07-20T03:09:16;2.65;;;1.48;;
77798;SDS011;66989;50.426;15.352;2023-07-20T03:11:42;2.83;;;1.55;;
77798;SDS011;66989;50.426;15.352;2023-07-20T03:14:07;2.47;;;1.45;;
77798;SDS011;66989;50.426;15.352;2023-07-20T03:16:32;2.20;;;1.15;;
77798;SDS011;66989;50.426;15.352;2023-07-20T03:18:58;2.60;;;1.70;;
77798;SDS011;66989;50.426;15.352;2023-07-20T03:21:25;2.63;;;1.73;;
77798;SDS011;66989;50.426;15.352;2023-07-20T03:23:51;2.75;;;1.67;;
77798;SDS011;66989;50.426;15.352;2023-07-20T03:26:16;3.25;;;1.73;;
77798;SDS011;66989;50.426;15.352;2023-07-20T03:28:42;5.47;;;2.45;;
77798;SDS011;66989;50.426;15.352;2023-07-20T03:31:07;3.85;;;2.85;;
77798;SDS011;66989;50.426;15.352;2023-07-20T03:33:33;3.58;;;2.40;;
77798;SDS011;66989;50.426;15.352;2023-07-20T03:35:59;2.88;;;2.17;;
77798;SDS011;66989;50.426;15.352;2023-07-20T03:38:25;4.38;;;2.50;;
77798;SDS011;66989;50.426;15.352;2023-07-20T03:43:17;2.70;;;1.85;;
77798;SDS011;66989;50.426;15.352;2023-07-20T03:45:42;3.92;;;2.08;;
77798;SDS011;66989;50.426;15.352;2023-07-20T03:48:08;3.80;;;2.83;;
77798;SDS011;66989;50.426;15.352;2023-07-20T03:50:34;4.00;;;3.03;;
77798;SDS011;66989;50.426;15.352;2023-07-20T03:52:59;4.50;;;3.42;;
77798;SDS011;66989;50.426;15.352;2023-07-20T03:55:24;5.37;;;3.63;;
77798;SDS011;66989;50.426;15.352;2023-07-20T03:57:50;4.32;;;3.28;;
77798;SDS011;66989;50.426;15.352;2023-07-20T04:00:16;3.30;;;2.97;;
77798;SDS011;66989;50.426;15.352;2023-07-20T04:02:42;4.82;;;3.67;;
77798;SDS011;66989;50.426;15.352;2023-07-20T04:05:07;5.75;;;2.80;;
77798;SDS011;66989;50.426;15.352;2023-07-20T04:07:33;5.78;;;3.50;;
77798;SDS011;66989;50.426;15.352;2023-07-20T04:09:58;11.57;;;6.80;;
77798;SDS011;66989;50.426;15.352;2023-07-20T04:12:23;5.97;;;4.47;;
77798;SDS011;66989;50.426;15.352;2023-07-20T04:14:49;5.00;;;3.87;;
77798;SDS011;66989;50.426;15.352;2023-07-20T04:17:14;4.38;;;3.75;;
77798;SDS011;66989;50.426;15.352;2023-07-20T04:19:40;5.05;;;4.22;;
77798;SDS011;66989;50.426;15.352;2023-07-20T04:22:05;3.65;;;2.83;;
77798;SDS011;66989;50.426;15.352;2023-07-20T04:24:30;10.05;;;3.70;;
77798;SDS011;66989;50.426;15.352;2023-07-20T04:26:56;4.72;;;2.92;;
77798;SDS011;66989;50.426;15.352;2023-07-20T04:29:21;3.75;;;2.65;;
77798;SDS011;66989;50.426;15.352;2023-07-20T04:31:46;11.52;;;3.53;;
77798;SDS011;66989;50.426;15.352;2023-07-20T04:34:12;4.88;;;3.38;;
77798;SDS011;66989;50.426;15.352;2023-07-20T04:36:37;4.18;;;2.85;;
77798;SDS011;66989;50.426;15.352;2023-07-20T04:39:03;4.97;;;2.90;;
77798;SDS011;66989;50.426;15.352;2023-07-20T04:41:29;3.72;;;3.08;;
77798;SDS011;66989;50.426;15.352;2023-07-20T04:43:54;5.38;;;2.88;;
77798;SDS011;66989;50.426;15.352;2023-07-20T04:46:20;7.25;;;3.80;;
77798;SDS011;66989;50.426;15.352;2023-07-20T04:48:46;5.28;;;4.22;;
77798;SDS011;66989;50.426;15.352;2023-07-20T04:51:12;7.03;;;4.03;;
77798;SDS011;66989;50.426;15.352;2023-07-20T04:53:38;3.90;;;3.08;;
77798;SDS011;66989;50.426;15.352;2023-07-20T04:56:03;5.28;;;3.95;;
77798;SDS011;66989;50.426;15.352;2023-07-20T04:58:29;4.90;;;3.88;;
77798;SDS011;66989;50.426;15.352;2023-07-20T05:00:54;7.50;;;3.47;;
77798;SDS011;66989;50.426;15.352;2023-07-20T05:03:20;7.30;;;3.47;;
77798;SDS011;66989;50.426;15.352;2023-07-20T05:05:49;3.00;;;2.70;;
77798;SDS011;66989;50.426;15.352;2023-07-20T05:08:14;6.05;;;2.70;;
77798;SDS011;66989;50.426;15.352;2023-07-20T05:10:39;21.10;;;15.60;;
77798;SDS011;66989;50.426;15.352;2023-07-20T05:13:05;11.27;;;6.78;;
77798;SDS011;66989;50.426;15.352;2023-07-20T05:15:32;5.60;;;4.53;;
77798;SDS011;66989;50.426;15.352;2023-07-20T05:17:59;6.65;;;3.75;;
77798;SDS011;66989;50.426;15.352;2023-07-20T05:20:24;6.07;;;4.10;;
77798;SDS011;66989;50.426;15.352;2023-07-20T05:22:50;9.68;;;3.80;;
77798;SDS011;66989;50.426;15.352;2023-07-20T05:25:15;15.25;;;11.15;;
77798;SDS011;66989;50.426;15.352;2023-07-20T05:27:43;11.88;;;7.82;;
77798;SDS011;66989;50.426;15.352;2023-07-20T05:30:08;7.32;;;5.05;;
77798;SDS011;66989;50.426;15.352;2023-07-20T05:32:34;6.32;;;4.28;;
77798;SDS011;66989;50.426;15.352;2023-07-20T05:35:00;6.35;;;4.07;;
77798;SDS011;66989;50.426;15.352;2023-07-20T05:37:25;5.78;;;4.60;;
77798;SDS011;66989;50.426;15.352;2023-07-20T05:39:50;4.95;;;3.67;;
77798;SDS011;66989;50.426;15.352;2023-07-20T05:42:16;4.15;;;3.28;;
77798;SDS011;66989;50.426;15.352;2023-07-20T05:44:41;4.93;;;3.38;;
77798;SDS011;66989;50.426;15.352;2023-07-20T05:47:07;5.03;;;3.17;;
77798;SDS011;66989;50.426;15.352;2023-07-20T05:49:33;4.53;;;2.75;;
77798;SDS011;66989;50.426;15.352;2023-07-20T05:51:59;4.75;;;3.63;;
77798;SDS011;66989;50.426;15.352;2023-07-20T05:54:26;4.35;;;3.95;;
77798;SDS011;66989;50.426;15.352;2023-07-20T05:56:51;6.00;;;2.90;;
77798;SDS011;66989;50.426;15.352;2023-07-20T05:59:17;4.47;;;3.63;;
77798;SDS011;66989;50.426;15.352;2023-07-20T06:01:45;7.00;;;3.97;;
77798;SDS011;66989;50.426;15.352;2023-07-20T06:04:13;4.07;;;2.53;;
77798;SDS011;66989;50.426;15.352;2023-07-20T06:06:38;4.95;;;2.70;;
77798;SDS011;66989;50.426;15.352;2023-07-20T06:09:04;3.70;;;2.85;;
77798;SDS011;66989;50.426;15.352;2023-07-20T06:11:33;6.60;;;3.13;;
77798;SDS011;66989;50.426;15.352;2023-07-20T06:13:58;3.33;;;2.88;;
77798;SDS011;66989;50.426;15.352;2023-07-20T06:16:24;4.60;;;3.00;;
77798;SDS011;66989;50.426;15.352;2023-07-20T06:18:49;3.53;;;2.80;;
77798;SDS011;66989;50.426;15.352;2023-07-20T06:21:15;3.03;;;2.58;;
77798;SDS011;66989;50.426;15.352;2023-07-20T06:23:40;3.53;;;2.83;;
77798;SDS011;66989;50.426;15.352;2023-07-20T06:26:06;3.17;;;2.00;;
77798;SDS011;66989;50.426;15.352;2023-07-20T06:31:01;2.80;;;2.08;;
77798;SDS011;66989;50.426;15.352;2023-07-20T06:33:27;2.70;;;2.03;;
77798;SDS011;66989;50.426;15.352;2023-07-20T06:35:53;3.40;;;1.35;;
77798;SDS011;66989;50.426;15.352;2023-07-20T06:38:19;1.90;;;1.63;;
77798;SDS011;66989;50.426;15.352;2023-07-20T06:40:46;3.20;;;2.25;;
77798;SDS011;66989;50.426;15.352;2023-07-20T06:43:11;2.28;;;1.27;;
77798;SDS011;66989;50.426;15.352;2023-07-20T06:45:37;3.63;;;2.13;;
77798;SDS011;66989;50.426;15.352;2023-07-20T06:48:02;2.47;;;1.55;;
77798;SDS011;66989;50.426;15.352;2023-07-20T06:50:28;1.55;;;1.33;;
77798;SDS011;66989;50.426;15.352;2023-07-20T06:52:53;1.95;;;1.55;;
77798;SDS011;66989;50.426;15.352;2023-07-20T06:55:19;1.70;;;1.42;;
77798;SDS011;66989;50.426;15.352;2023-07-20T06:57:44;2.08;;;1.27;;
77798;SDS011;66989;50.426;15.352;2023-07-20T07:00:10;2.53;;;0.85;;
77798;SDS011;66989;50.426;15.352;2023-07-20T07:02:37;2.05;;;1.45;;
77798;SDS011;66989;50.426;15.352;2023-07-20T07:05:03;2.17;;;1.23;;
77798;SDS011;66989;50.426;15.352;2023-07-20T07:07:29;1.85;;;1.35;;
77798;SDS011;66989;50.426;15.352;2023-07-20T07:09:54;1.80;;;1.08;;
77798;SDS011;66989;50.426;15.352;2023-07-20T07:12:19;1.60;;;1.02;;
77798;SDS011;66989;50.426;15.352;2023-07-20T07:14:45;2.00;;;1.10;;
77798;SDS011;66989;50.426;15.352;2023-07-20T07:17:10;1.52;;;1.08;;
77798;SDS011;66989;50.426;15.352;2023-07-20T07:19:35;2.70;;;1.63;;
77798;SDS011;66989;50.426;15.352;2023-07-20T07:22:02;3.60;;;0.75;;
77798;SDS011;66989;50.426;15.352;2023-07-20T07:24:29;3.40;;;1.63;;
77798;SDS011;66989;50.426;15.352;2023-07-20T07:26:58;2.80;;;1.08;;
77798;SDS011;66989;50.426;15.352;2023-07-20T07:29:24;1.35;;;1.15;;
77798;SDS011;66989;50.426;15.352;2023-07-20T07:31:50;2.47;;;1.40;;
77798;SDS011;66989;50.426;15.352;2023-07-20T07:34:16;2.08;;;1.17;;
77798;SDS011;66989;50.426;15.352;2023-07-20T07:36:43;3.33;;;1.52;;
77798;SDS011;66989;50.426;15.352;2023-07-20T07:39:09;2.20;;;1.30;;
77798;SDS011;66989;50.426;15.352;2023-07-20T07:41:35;2.05;;;1.52;;
77798;SDS011;66989;50.426;15.352;2023-07-20T07:44:00;1.73;;;1.35;;
77798;SDS011;66989;50.426;15.352;2023-07-20T07:46:26;3.30;;;1.50;;
77798;SDS011;66989;50.426;15.352;2023-07-20T07:48:51;2.03;;;0.95;;
77798;SDS011;66989;50.426;15.352;2023-07-20T07:51:16;3.47;;;1.27;;
77798;SDS011;66989;50.426;15.352;2023-07-20T07:53:42;1.63;;;1.17;;
77798;SDS011;66989;50.426;15.352;2023-07-20T07:56:08;3.65;;;0.93;;
77798;SDS011;66989;50.426;15.352;2023-07-20T07:58:34;3.30;;;1.27;;
77798;SDS011;66989;50.426;15.352;2023-07-20T08:00:59;2.42;;;1.05;;
77798;SDS011;66989;50.426;15.352;2023-07-20T08:03:25;1.85;;;1.13;;
77798;SDS011;66989;50.426;15.352;2023-07-20T08:05:51;1.33;;;1.10;;
77798;SDS011;66989;50.426;15.352;2023-07-20T08:08:18;2.35;;;1.17;;
77798;SDS011;66989;50.426;15.352;2023-07-20T08:10:44;1.30;;;0.82;;
77798;SDS011;66989;50.426;15.352;2023-07-20T08:13:09;2.03;;;0.63;;
77798;SDS011;66989;50.426;15.352;2023-07-20T08:15:35;2.30;;;1.35;;
77798;SDS011;66989;50.426;15.352;2023-07-20T08:18:00;2.00;;;1.00;;
77798;SDS011;66989;50.426;15.352;2023-07-20T08:20:25;1.60;;;0.88;;
77798;SDS011;66989;50.426;15.352;2023-07-20T08:22:52;1.23;;;0.80;;
77798;SDS011;66989;50.426;15.352;2023-07-20T08:25:19;1.08;;;0.98;;
77798;SDS011;66989;50.426;15.352;2023-07-20T08:27:45;2.10;;;0.77;;
77798;SDS011;66989;50.426;15.352;2023-07-20T08:30:12;1.77;;;0.73;;
77798;SDS011;66989;50.426;15.352;2023-07-20T08:32:38;1.23;;;1.08;;
77798;SDS011;66989;50.426;15.352;2023-07-20T08:35:03;2.47;;;1.25;;
77798;SDS011;66989;50.426;15.352;2023-07-20T08:37:29;1.63;;;0.85;;
77798;SDS011;66989;50.426;15.352;2023-07-20T08:39:54;1.42;;;1.33;;
77798;SDS011;66989;50.426;15.352;2023-07-20T08:42:20;2.30;;;0.52;;
77798;SDS011;66989;50.426;15.352;2023-07-20T08:44:47;1.25;;;0.65;;
77798;SDS011;66989;50.426;15.352;2023-07-20T08:47:14;2.22;;;0.82;;
77798;SDS011;66989;50.426;15.352;2023-07-20T08:49:41;2.33;;;1.10;;
77798;SDS011;66989;50.426;15.352;2023-07-20T08:52:06;0.98;;;0.82;;
77798;SDS011;66989;50.426;15.352;2023-07-20T08:54:32;0.70;;;0.55;;
77798;SDS011;66989;50.426;15.352;2023-07-20T08:57:01;4.40;;;0.98;;
77798;SDS011;66989;50.426;15.352;2023-07-20T08:59:28;1.92;;;1.08;;
77798;SDS011;66989;50.426;15.352;2023-07-20T09:01:55;1.38;;;0.73;;
77798;SDS011;66989;50.426;15.352;2023-07-20T09:04:22;1.48;;;0.73;;
77798;SDS011;66989;50.426;15.352;2023-07-20T09:06:48;1.48;;;1.35;;
77798;SDS011;66989;50.426;15.352;2023-07-20T09:09:14;1.02;;;0.90;;
77798;SDS011;66989;50.426;15.352;2023-07-20T09:11:40;2.63;;;1.77;;
77798;SDS011;66989;50.426;15.352;2023-07-20T09:14:05;3.28;;;1.58;;
77798;SDS011;66989;50.426;15.352;2023-07-20T09:16:32;4.55;;;0.63;;
77798;SDS011;66989;50.426;15.352;2023-07-20T09:18:58;1.27;;;1.13;;
77798;SDS011;66989;50.426;15.352;2023-07-20T09:21:24;5.75;;;0.77;;
77798;SDS011;66989;50.426;15.352;2023-07-20T09:23:56;1.10;;;0.88;;
77798;SDS011;66989;50.426;15.352;2023-07-20T09:26:22;2.10;;;0.70;;
77798;SDS011;66989;50.426;15.352;2023-07-20T09:28:48;1.40;;;1.10;;
77798;SDS011;66989;50.426;15.352;2023-07-20T09:31:21;1.92;;;1.25;;
77798;SDS011;66989;50.426;15.352;2023-07-20T09:33:47;1.25;;;0.85;;
77798;SDS011;66989;50.426;15.352;2023-07-20T09:36:14;1.48;;;1.27;;
77798;SDS011;66989;50.426;15.352;2023-07-20T09:38:41;2.03;;;1.15;;
77798;SDS011;66989;50.426;15.352;2023-07-20T09:41:08;4.20;;;1.13;;
77798;SDS011;66989;50.426;15.352;2023-07-20T09:43:37;3.55;;;0.98;;
77798;SDS011;66989;50.426;15.352;2023-07-20T09:46:04;4.97;;;0.88;;
77798;SDS011;66989;50.426;15.352;2023-07-20T09:48:30;2.92;;;0.73;;
77798;SDS011;66989;50.426;15.352;2023-07-20T09:50:55;3.78;;;0.40;;
77798;SDS011;66989;50.426;15.352;2023-07-20T09:53:21;2.17;;;0.55;;
77798;SDS011;66989;50.426;15.352;2023-07-20T09:55:53;4.55;;;1.15;;
77798;SDS011;66989;50.426;15.352;2023-07-20T09:58:28;2.00;;;0.82;;
77798;SDS011;66989;50.426;15.352;2023-07-20T10:00:59;2.55;;;0.73;;
77798;SDS011;66989;50.426;15.352;2023-07-20T10:03:31;3.03;;;0.90;;
77798;SDS011;66989;50.426;15.352;2023-07-20T10:06:02;3.35;;;1.98;;
77798;SDS011;66989;50.426;15.352;2023-07-20T10:08:32;2.92;;;1.58;;
77798;SDS011;66989;50.426;15.352;2023-07-20T10:11:07;1.38;;;1.05;;
77798;SDS011;66989;50.426;15.352;2023-07-20T10:13:35;4.97;;;3.05;;
77798;SDS011;66989;50.426;15.352;2023-07-20T10:16:07;1.90;;;1.48;;
77798;SDS011;66989;50.426;15.352;2023-07-20T10:21:27;2.20;;;1.80;;
77798;SDS011;66989;50.426;15.352;2023-07-20T10:23:54;1.55;;;0.85;;
77798;SDS011;66989;50.426;15.352;2023-07-20T10:26:21;1.52;;;0.82;;
77798;SDS011;66989;50.426;15.352;2023-07-20T10:28:46;1.73;;;1.43;;
77798;SDS011;66989;50.426;15.352;2023-07-20T10:31:12;2.58;;;1.13;;
77798;SDS011;66989;50.426;15.352;2023-07-20T10:33:38;1.77;;;1.42;;
77798;SDS011;66989;50.426;15.352;2023-07-20T10:36:06;3.28;;;2.10;;
77798;SDS011;66989;50.426;15.352;2023-07-20T10:38:41;1.10;;;0.82;;
77798;SDS011;66989;50.426;15.352;2023-07-20T10:41:27;0.95;;;0.75;;
77798;SDS011;66989;50.426;15.352;2023-07-20T10:44:09;1.45;;;0.60;;
77798;SDS011;66989;50.426;15.352;2023-07-20T10:49:03;0.88;;;0.80;;
77798;SDS011;66989;50.426;15.352;2023-07-20T10:51:30;1.65;;;1.05;;
77798;SDS011;66989;50.426;15.352;2023-07-20T10:54:07;1.42;;;1.13;;
77798;SDS011;66989;50.426;15.352;2023-07-20T10:56:33;3.17;;;1.40;;
77798;SDS011;66989;50.426;15.352;2023-07-20T10:58:59;1.92;;;0.88;;
77798;SDS011;66989;50.426;15.352;2023-07-20T11:01:28;1.85;;;0.82;;
77798;SDS011;66989;50.426;15.352;2023-07-20T11:03:57;2.25;;;0.47;;
77798;SDS011;66989;50.426;15.352;2023-07-20T11:09:12;1.47;;;1.37;;
77798;SDS011;66989;50.426;15.352;2023-07-20T11:11:41;0.90;;;0.90;;
77798;SDS011;66989;50.426;15.352;2023-07-20T11:14:24;2.17;;;1.17;;
77798;SDS011;66989;50.426;15.352;2023-07-20T11:16:53;1.38;;;1.27;;
77798;SDS011;66989;50.426;15.352;2023-07-20T11:19:28;0.88;;;0.63;;
77798;SDS011;66989;50.426;15.352;2023-07-20T11:21:55;1.40;;;0.93;;
77798;SDS011;66989;50.426;15.352;2023-07-20T11:24:21;1.08;;;0.80;;
77798;SDS011;66989;50.426;15.352;2023-07-20T11:26:51;1.17;;;0.47;;
77798;SDS011;66989;50.426;15.352;2023-07-20T11:29:18;4.38;;;1.00;;
77798;SDS011;66989;50.426;15.352;2023-07-20T11:31:45;1.80;;;0.77;;
77798;SDS011;66989;50.426;15.352;2023-07-20T11:34:12;1.00;;;0.65;;
77798;SDS011;66989;50.426;15.352;2023-07-20T11:36:45;2.50;;;1.40;;
77798;SDS011;66989;50.426;15.352;2023-07-20T11:39:13;2.08;;;1.58;;
77798;SDS011;66989;50.426;15.352;2023-07-20T11:41:43;1.02;;;0.60;;
77798;SDS011;66989;50.426;15.352;2023-07-20T11:44:11;1.10;;;0.80;;
77798;SDS011;66989;50.426;15.352;2023-07-20T11:46:40;1.50;;;1.08;;
77798;SDS011;66989;50.426;15.352;2023-07-20T11:49:07;1.85;;;1.50;;
77798;SDS011;66989;50.426;15.352;2023-07-20T11:51:33;1.42;;;1.33;;
77798;SDS011;66989;50.426;15.352;2023-07-20T11:54:01;1.45;;;1.15;;
77798;SDS011;66989;50.426;15.352;2023-07-20T11:56:27;1.15;;;0.88;;
77798;SDS011;66989;50.426;15.352;2023-07-20T12:01:24;0.98;;;0.82;;
77798;SDS011;66989;50.426;15.352;2023-07-20T12:06:15;0.90;;;0.57;;
77798;SDS011;66989;50.426;15.352;2023-07-20T12:08:41;1.48;;;0.68;;
77798;SDS011;66989;50.426;15.352;2023-07-20T12:11:08;1.00;;;0.50;;
77798;SDS011;66989;50.426;15.352;2023-07-20T12:16:15;1.08;;;0.88;;
77798;SDS011;66989;50.426;15.352;2023-07-20T12:18:42;1.00;;;0.80;;
77798;SDS011;66989;50.426;15.352;2023-07-20T12:21:08;1.10;;;0.98;;
77798;SDS011;66989;50.426;15.352;2023-07-20T12:26:00;1.13;;;0.95;;
77798;SDS011;66989;50.426;15.352;2023-07-20T12:30:51;1.42;;;0.80;;
77798;SDS011;66989;50.426;15.352;2023-07-20T12:33:21;1.13;;;0.82;;
77798;SDS011;66989;50.426;15.352;2023-07-20T12:35:48;0.98;;;0.65;;
77798;SDS011;66989;50.426;15.352;2023-07-20T12:38:14;0.88;;;0.75;;
77798;SDS011;66989;50.426;15.352;2023-07-20T12:40:41;1.80;;;0.75;;
77798;SDS011;66989;50.426;15.352;2023-07-20T12:43:06;2.50;;;1.38;;
77798;SDS011;66989;50.426;15.352;2023-07-20T12:47:58;1.38;;;0.35;;
77798;SDS011;66989;50.426;15.352;2023-07-20T12:50:24;1.58;;;0.80;;
77798;SDS011;66989;50.426;15.352;2023-07-20T12:52:49;1.42;;;0.52;;
77798;SDS011;66989;50.426;15.352;2023-07-20T12:55:15;0.60;;;0.23;;
77798;SDS011;66989;50.426;15.352;2023-07-20T12:57:40;1.77;;;1.00;;
77798;SDS011;66989;50.426;15.352;2023-07-20T13:00:10;1.20;;;0.52;;
77798;SDS011;66989;50.426;15.352;2023-07-20T13:02:37;1.70;;;0.73;;
77798;SDS011;66989;50.426;15.352;2023-07-20T13:05:03;2.67;;;0.65;;
77798;SDS011;66989;50.426;15.352;2023-07-20T13:07:32;7.40;;;5.32;;
77798;SDS011;66989;50.426;15.352;2023-07-20T13:10:02;1.23;;;0.90;;
77798;SDS011;66989;50.426;15.352;2023-07-20T13:12:29;1.20;;;0.95;;
77798;SDS011;66989;50.426;15.352;2023-07-20T13:14:56;2.28;;;0.50;;
77798;SDS011;66989;50.426;15.352;2023-07-20T13:17:22;1.42;;;0.68;;
77798;SDS011;66989;50.426;15.352;2023-07-20T13:19:48;1.00;;;0.90;;
77798;SDS011;66989;50.426;15.352;2023-07-20T13:22:13;1.00;;;0.52;;
77798;SDS011;66989;50.426;15.352;2023-07-20T13:24:39;0.85;;;0.55;;
77798;SDS011;66989;50.426;15.352;2023-07-20T13:27:05;1.52;;;0.73;;
77798;SDS011;66989;50.426;15.352;2023-07-20T13:29:31;0.60;;;0.60;;
77798;SDS011;66989;50.426;15.352;2023-07-20T13:31:57;1.35;;;0.65;;
77798;SDS011;66989;50.426;15.352;2023-07-20T13:34:22;0.88;;;0.35;;
77798;SDS011;66989;50.426;15.352;2023-07-20T13:39:14;0.93;;;0.77;;
77798;SDS011;66989;50.426;15.352;2023-07-20T13:41:39;1.85;;;0.73;;
77798;SDS011;66989;50.426;15.352;2023-07-20T13:44:05;2.30;;;1.77;;
77798;SDS011;66989;50.426;15.352;2023-07-20T13:46:30;1.10;;;0.68;;
77798;SDS011;66989;50.426;15.352;2023-07-20T13:48:55;1.30;;;0.73;;
77798;SDS011;66989;50.426;15.352;2023-07-20T13:51:21;0.75;;;0.45;;
77798;SDS011;66989;50.426;15.352;2023-07-20T13:53:47;1.38;;;0.55;;
77798;SDS011;66989;50.426;15.352;2023-07-20T13:56:13;1.23;;;1.13;;
77798;SDS011;66989;50.426;15.352;2023-07-20T13:58:39;1.67;;;0.85;;
77798;SDS011;66989;50.426;15.352;2023-07-20T14:01:04;1.60;;;0.80;;
77798;SDS011;66989;50.426;15.352;2023-07-20T14:03:29;1.20;;;0.65;;
77798;SDS011;66989;50.426;15.352;2023-07-20T14:05:55;0.68;;;0.65;;
77798;SDS011;66989;50.426;15.352;2023-07-20T14:08:21;1.85;;;0.73;;
77798;SDS011;66989;50.426;15.352;2023-07-20T14:10:47;1.50;;;0.82;;
77798;SDS011;66989;50.426;15.352;2023-07-20T14:13:12;9.23;;;1.43;;
77798;SDS011;66989;50.426;15.352;2023-07-20T14:15:38;4.83;;;0.90;;
77798;SDS011;66989;50.426;15.352;2023-07-20T14:18:04;5.40;;;1.70;;
77798;SDS011;66989;50.426;15.352;2023-07-20T14:20:29;3.80;;;1.20;;
77798;SDS011;66989;50.426;15.352;2023-07-20T14:22:56;1.60;;;0.93;;
77798;SDS011;66989;50.426;15.352;2023-07-20T14:25:21;2.05;;;1.20;;
77798;SDS011;66989;50.426;15.352;2023-07-20T14:27:47;1.40;;;0.70;;
77798;SDS011;66989;50.426;15.352;2023-07-20T14:30:12;1.65;;;0.73;;
77798;SDS011;66989;50.426;15.352;2023-07-20T14:32:38;2.25;;;0.85;;
77798;SDS011;66989;50.426;15.352;2023-07-20T14:35:04;2.30;;;1.55;;
77798;SDS011;66989;50.426;15.352;2023-07-20T14:37:30;3.00;;;1.13;;
77798;SDS011;66989;50.426;15.352;2023-07-20T14:39:55;2.17;;;1.25;;
77798;SDS011;66989;50.426;15.352;2023-07-20T14:42:20;2.40;;;0.60;;
77798;SDS011;66989;50.426;15.352;2023-07-20T14:44:46;5.15;;;1.00;;
77798;SDS011;66989;50.426;15.352;2023-07-20T14:47:11;2.50;;;0.80;;
77798;SDS011;66989;50.426;15.352;2023-07-20T14:49:36;2.67;;;0.63;;
77798;SDS011;66989;50.426;15.352;2023-07-20T14:52:02;1.65;;;0.80;;
77798;SDS011;66989;50.426;15.352;2023-07-20T14:56:54;1.42;;;0.80;;
77798;SDS011;66989;50.426;15.352;2023-07-20T14:59:19;1.85;;;0.60;;
77798;SDS011;66989;50.426;15.352;2023-07-20T15:01:47;0.68;;;0.50;;
77798;SDS011;66989;50.426;15.352;2023-07-20T15:04:13;1.40;;;0.47;;
77798;SDS011;66989;50.426;15.352;2023-07-20T15:06:39;1.00;;;0.65;;
77798;SDS011;66989;50.426;15.352;2023-07-20T15:09:05;0.70;;;0.30;;
77798;SDS011;66989;50.426;15.352;2023-07-20T15:11:31;1.67;;;0.65;;
77798;SDS011;66989;50.426;15.352;2023-07-20T15:13:56;2.08;;;1.35;;